Time;durP1;ratioP1;P1;durP2;ratioP2;P2;SDS_P1;SDS_P2;PMS_P1;PMS_P2;Temp;Humidity;BMP_temperature;BMP_pressure;BME280_temperature;BME280_humidity;BME280_pressure;Samples;Min_cycle;Max_cycle;Signal;HPM_P1;HPM_P2
2022/03/19 00:00:30;;;;;;;17.93;9.90;;;;;;;;;;4448003;32;20299;-52
2022/03/19 00:02:55;;;;;;;23.63;9.83;;;;;;;;;;4452947;32;20235;-52
2022/03/19 00:05:21;;;;;;;18.87;10.33;;;;;;;;;;4460866;32;20279;-51
2022/03/19 00:07:47;;;;;;;18.67;10.03;;;;;;;;;;4458198;32;20247;-50
2022/03/19 00:10:14;;;;;;;15.97;8.87;;;;;;;;;;4455922;32;20284;-53
2022/03/19 00:12:40;;;;;;;18.63;9.83;;;;;;;;;;4461551;32;20584;-51
2022/03/19 00:15:07;;;;;;;14.77;9.03;;;;;;;;;;4455003;32;20287;-52
2022/03/19 00:17:32;;;;;;;15.40;9.20;;;;;;;;;;4450473;32;20220;-51
2022/03/19 00:19:58;;;;;;;17.80;10.17;;;;;;;;;;4460648;32;20385;-51
2022/03/19 00:22:23;;;;;;;22.90;10.90;;;;;;;;;;4452786;32;20346;-51
2022/03/19 00:24:49;;;;;;;17.33;8.53;;;;;;;;;;4448727;32;20684;-50
2022/03/19 00:27:14;;;;;;;16.90;7.50;;;;;;;;;;4457563;32;20284;-52
2022/03/19 00:29:40;;;;;;;10.97;7.37;;;;;;;;;;4456327;32;20693;-51
2022/03/19 00:32:06;;;;;;;11.00;7.33;;;;;;;;;;4462549;32;20207;-51
2022/03/19 00:34:32;;;;;;;12.43;7.43;;;;;;;;;;4463214;32;20262;-51
2022/03/19 00:36:58;;;;;;;12.80;8.13;;;;;;;;;;4455344;32;20284;-51
2022/03/19 00:39:24;;;;;;;16.83;9.87;;;;;;;;;;4456454;32;20847;-51
2022/03/19 00:41:50;;;;;;;18.67;10.77;;;;;;;;;;4457825;32;20561;-51
2022/03/19 00:44:15;;;;;;;18.80;10.57;;;;;;;;;;4450342;32;20236;-51
2022/03/19 00:46:40;;;;;;;14.97;8.57;;;;;;;;;;4462827;32;20258;-51
2022/03/19 00:49:06;;;;;;;23.70;8.80;;;;;;;;;;4454485;32;20232;-51
2022/03/19 00:51:32;;;;;;;15.90;7.97;;;;;;;;;;4448416;32;20208;-50
2022/03/19 00:53:58;;;;;;;16.03;7.27;;;;;;;;;;4461239;32;20223;-51
2022/03/19 00:56:23;;;;;;;17.97;8.53;;;;;;;;;;4463076;32;20765;-50
2022/03/19 00:58:49;;;;;;;14.07;8.63;;;;;;;;;;4457658;32;20304;-50
2022/03/19 01:01:14;;;;;;;21.63;9.13;;;;;;;;;;4460600;32;20294;-50
2022/03/19 01:03:39;;;;;;;20.60;9.03;;;;;;;;;;4448251;32;20302;-51
2022/03/19 01:06:05;;;;;;;19.77;10.80;;;;;;;;;;4449659;32;20275;-51
2022/03/19 01:08:31;;;;;;;25.07;10.20;;;;;;;;;;4454837;32;20278;-51
2022/03/19 01:10:56;;;;;;;17.63;9.93;;;;;;;;;;4456849;32;20339;-50
2022/03/19 01:13:21;;;;;;;17.10;8.77;;;;;;;;;;4456936;32;20232;-49
2022/03/19 01:15:47;;;;;;;18.57;9.80;;;;;;;;;;4459168;32;20280;-50
2022/03/19 01:18:12;;;;;;;15.83;9.23;;;;;;;;;;4448228;32;20355;-51
2022/03/19 01:20:38;;;;;;;11.40;6.47;;;;;;;;;;4451847;32;20429;-50
2022/03/19 01:23:05;;;;;;;12.30;7.83;;;;;;;;;;4447630;32;20338;-49
2022/03/19 01:25:31;;;;;;;11.20;7.70;;;;;;;;;;4455242;32;20309;-51
2022/03/19 01:27:56;;;;;;;15.50;8.93;;;;;;;;;;4454478;32;20315;-50
2022/03/19 01:30:22;;;;;;;18.77;10.33;;;;;;;;;;4461159;32;20739;-50
2022/03/19 01:32:49;;;;;;;22.50;10.37;;;;;;;;;;4452656;32;20685;-51
2022/03/19 01:35:16;;;;;;;15.70;9.20;;;;;;;;;;4456058;32;20727;-52
2022/03/19 01:37:42;;;;;;;14.53;8.87;;;;;;;;;;4445966;32;20228;-51
2022/03/19 01:40:10;;;;;;;21.17;10.20;;;;;;;;;;4455969;32;20267;-53
2022/03/19 01:42:37;;;;;;;17.50;10.50;;;;;;;;;;4457683;32;20288;-51
2022/03/19 01:45:05;;;;;;;25.97;13.87;;;;;;;;;;4450489;32;20273;-52
2022/03/19 01:47:31;;;;;;;26.90;13.43;;;;;;;;;;4449244;32;20442;-51
2022/03/19 01:49:57;;;;;;;25.40;13.13;;;;;;;;;;4451717;32;20212;-51
2022/03/19 01:52:25;;;;;;;22.33;13.13;;;;;;;;;;4456826;32;20261;-50
2022/03/19 01:54:52;;;;;;;28.23;12.13;;;;;;;;;;4455553;32;20303;-51
2022/03/19 01:57:21;;;;;;;25.73;13.33;;;;;;;;;;4461108;32;20230;-50
2022/03/19 01:59:46;;;;;;;24.57;12.60;;;;;;;;;;4456665;32;20284;-51
2022/03/19 02:02:12;;;;;;;21.67;11.50;;;;;;;;;;4452425;32;20268;-51
2022/03/19 02:04:40;;;;;;;24.27;13.10;;;;;;;;;;4447844;32;20718;-50
2022/03/19 02:07:07;;;;;;;28.67;14.23;;;;;;;;;;4458126;32;20221;-50
2022/03/19 02:09:33;;;;;;;36.57;14.43;;;;;;;;;;4451458;32;20252;-51
2022/03/19 02:11:59;;;;;;;28.67;15.27;;;;;;;;;;4450948;32;20310;-51
2022/03/19 02:14:25;;;;;;;25.43;14.63;;;;;;;;;;4459106;32;20219;-51
2022/03/19 02:16:51;;;;;;;36.83;15.27;;;;;;;;;;4449659;32;20751;-51
2022/03/19 02:19:16;;;;;;;29.20;14.57;;;;;;;;;;4448770;32;20250;-50
2022/03/19 02:21:48;;;;;;;27.30;15.37;;;;;;;;;;4452719;32;20542;-51
2022/03/19 02:26:59;;;;;;;31.10;18.23;;;;;;;;;;4450475;32;20736;-50
2022/03/19 02:29:25;;;;;;;35.17;17.47;;;;;;;;;;4451624;32;20224;-51
2022/03/19 02:31:54;;;;;;;40.17;18.70;;;;;;;;;;4455832;32;20308;-51
2022/03/19 02:34:20;;;;;;;35.17;15.63;;;;;;;;;;4450171;32;20248;-50
2022/03/19 02:36:46;;;;;;;26.40;14.53;;;;;;;;;;4451870;32;20309;-50
2022/03/19 02:39:18;;;;;;;24.20;13.40;;;;;;;;;;4460179;32;20652;-50
2022/03/19 02:41:45;;;;;;;25.07;12.47;;;;;;;;;;4458624;32;21039;-49
2022/03/19 02:44:13;;;;;;;24.00;13.27;;;;;;;;;;4455829;32;20739;-50
2022/03/19 02:46:39;;;;;;;25.13;12.00;;;;;;;;;;4461652;32;20212;-51
2022/03/19 02:49:05;;;;;;;26.50;12.63;;;;;;;;;;4463347;32;20236;-50
2022/03/19 02:51:33;;;;;;;36.93;14.97;;;;;;;;;;4464027;32;20309;-50
2022/03/19 02:53:59;;;;;;;28.90;13.67;;;;;;;;;;4452789;32;20403;-51
2022/03/19 02:56:25;;;;;;;22.83;13.93;;;;;;;;;;4450941;32;20632;-50
2022/03/19 02:58:50;;;;;;;20.17;12.57;;;;;;;;;;4458936;32;20382;-51
2022/03/19 03:01:15;;;;;;;22.03;13.70;;;;;;;;;;4448744;32;20408;-52
2022/03/19 03:03:41;;;;;;;32.10;17.23;;;;;;;;;;4451530;32;20342;-50
2022/03/19 03:06:07;;;;;;;29.23;15.20;;;;;;;;;;4453242;32;20295;-51
2022/03/19 03:08:32;;;;;;;24.80;13.70;;;;;;;;;;4448481;32;20358;-50
2022/03/19 03:10:58;;;;;;;22.40;13.23;;;;;;;;;;4454894;32;20350;-50
2022/03/19 03:13:24;;;;;;;33.93;12.67;;;;;;;;;;4457336;32;20307;-51
2022/03/19 03:15:49;;;;;;;26.10;12.67;;;;;;;;;;4450499;32;20377;-50
2022/03/19 03:18:15;;;;;;;24.37;12.97;;;;;;;;;;4450059;32;20331;-51
2022/03/19 03:20:40;;;;;;;21.87;12.30;;;;;;;;;;4455685;32;20604;-52
2022/03/19 03:23:05;;;;;;;22.77;12.67;;;;;;;;;;4455286;32;20240;-51
2022/03/19 03:25:31;;;;;;;36.47;16.37;;;;;;;;;;4451820;32;20315;-51
2022/03/19 03:27:56;;;;;;;42.63;19.27;;;;;;;;;;4454510;32;20232;-52
2022/03/19 03:30:22;;;;;;;38.03;18.27;;;;;;;;;;4458638;32;20311;-51
2022/03/19 03:32:47;;;;;;;34.70;19.43;;;;;;;;;;4454526;32;20228;-50
2022/03/19 03:35:13;;;;;;;32.97;16.03;;;;;;;;;;4451351;32;20749;-49
2022/03/19 03:37:38;;;;;;;28.60;14.87;;;;;;;;;;4452378;32;20432;-51
2022/03/19 03:40:05;;;;;;;28.40;13.57;;;;;;;;;;4458745;32;20439;-52
2022/03/19 03:42:31;;;;;;;25.10;13.07;;;;;;;;;;4456618;32;20757;-51
2022/03/19 03:44:58;;;;;;;18.33;10.57;;;;;;;;;;4456613;32;20338;-52
2022/03/19 03:47:25;;;;;;;19.03;12.33;;;;;;;;;;4458971;32;20356;-51
2022/03/19 03:49:53;;;;;;;21.43;10.07;;;;;;;;;;4456638;32;20286;-52
2022/03/19 03:52:20;;;;;;;14.77;8.77;;;;;;;;;;4460350;32;20212;-51
2022/03/19 03:54:45;;;;;;;20.10;10.83;;;;;;;;;;4456516;32;20306;-51
2022/03/19 03:57:11;;;;;;;25.67;13.10;;;;;;;;;;4456753;32;20250;-50
2022/03/19 03:59:36;;;;;;;15.33;10.47;;;;;;;;;;4457867;32;20382;-50
2022/03/19 04:02:02;;;;;;;24.30;11.83;;;;;;;;;;4462178;32;20279;-51
2022/03/19 04:04:28;;;;;;;26.60;13.70;;;;;;;;;;4464311;32;20228;-50
2022/03/19 04:06:53;;;;;;;26.10;15.87;;;;;;;;;;4449712;32;20315;-51
2022/03/19 04:09:19;;;;;;;25.67;14.93;;;;;;;;;;4453346;32;20502;-51
2022/03/19 04:11:44;;;;;;;29.73;15.70;;;;;;;;;;4457871;32;20589;-51
2022/03/19 04:14:10;;;;;;;25.57;13.93;;;;;;;;;;4460293;32;20311;-50
2022/03/19 04:16:37;;;;;;;24.63;12.60;;;;;;;;;;4449388;32;20274;-52
2022/03/19 04:19:03;;;;;;;29.33;15.20;;;;;;;;;;4448397;32;20254;-51
2022/03/19 04:21:28;;;;;;;28.80;13.33;;;;;;;;;;4449690;32;20224;-51
2022/03/19 04:23:54;;;;;;;33.33;15.47;;;;;;;;;;4461316;32;20620;-51
2022/03/19 04:26:19;;;;;;;29.83;13.23;;;;;;;;;;4451918;32;20233;-51
2022/03/19 04:28:45;;;;;;;27.97;14.47;;;;;;;;;;4456773;32;20661;-51
2022/03/19 04:31:10;;;;;;;40.00;17.37;;;;;;;;;;4454764;32;20363;-50
2022/03/19 04:33:35;;;;;;;35.03;20.37;;;;;;;;;;4447552;32;20278;-50
2022/03/19 04:38:45;;;;;;;27.17;15.53;;;;;;;;;;4447255;32;20266;-50
2022/03/19 04:41:12;;;;;;;28.23;12.73;;;;;;;;;;4451538;32;20307;-51
2022/03/19 04:43:37;;;;;;;24.33;14.47;;;;;;;;;;4452362;32;20228;-50
2022/03/19 04:46:03;;;;;;;22.07;11.97;;;;;;;;;;4453021;32;20316;-51
2022/03/19 04:48:30;;;;;;;19.40;13.00;;;;;;;;;;4452339;32;20358;-51
2022/03/19 04:50:56;;;;;;;26.93;15.70;;;;;;;;;;4462209;32;20267;-51
2022/03/19 04:53:21;;;;;;;24.37;16.00;;;;;;;;;;4459069;32;20284;-50
2022/03/19 04:55:47;;;;;;;32.10;16.80;;;;;;;;;;4454697;32;20615;-52
2022/03/19 04:58:13;;;;;;;30.83;17.83;;;;;;;;;;4453544;32;20291;-52
2022/03/19 05:00:38;;;;;;;31.20;15.87;;;;;;;;;;4458367;32;20309;-52
2022/03/19 05:03:09;;;;;;;65.67;27.77;;;;;;;;;;4448216;32;20319;-51
2022/03/19 05:05:35;;;;;;;40.57;20.13;;;;;;;;;;4458026;32;20208;-51
2022/03/19 05:08:01;;;;;;;37.57;18.70;;;;;;;;;;4456314;32;20321;-51
2022/03/19 05:13:11;;;;;;;39.50;19.63;;;;;;;;;;4453808;32;20342;-52
2022/03/19 05:15:37;;;;;;;40.37;18.33;;;;;;;;;;4457374;32;20590;-52
2022/03/19 05:18:03;;;;;;;38.10;19.40;;;;;;;;;;4455399;32;20243;-51
2022/03/19 05:20:28;;;;;;;40.73;23.77;;;;;;;;;;4453840;32;20666;-53
2022/03/19 05:22:54;;;;;;;83.33;38.57;;;;;;;;;;4458562;32;20307;-52
2022/03/19 05:25:19;;;;;;;65.57;34.47;;;;;;;;;;4450539;32;20302;-53
2022/03/19 05:27:45;;;;;;;61.87;34.77;;;;;;;;;;4455641;32;20288;-51
2022/03/19 05:30:11;;;;;;;60.27;33.00;;;;;;;;;;4454455;32;20769;-50
2022/03/19 05:32:37;;;;;;;43.40;26.90;;;;;;;;;;4448230;32;20252;-51
2022/03/19 05:35:04;;;;;;;47.03;25.93;;;;;;;;;;4457795;32;20338;-51
2022/03/19 05:37:30;;;;;;;44.70;26.47;;;;;;;;;;4452207;32;20258;-51
2022/03/19 05:39:56;;;;;;;40.97;26.77;;;;;;;;;;4456982;32;20293;-51
2022/03/19 05:42:22;;;;;;;55.87;27.27;;;;;;;;;;4448526;32;20260;-51
2022/03/19 05:44:48;;;;;;;44.77;26.60;;;;;;;;;;4455949;32;20305;-51
2022/03/19 05:47:14;;;;;;;50.20;27.43;;;;;;;;;;4446538;32;20260;-51
2022/03/19 05:49:40;;;;;;;61.87;31.73;;;;;;;;;;4447194;32;20379;-51
2022/03/19 05:52:06;;;;;;;67.23;35.00;;;;;;;;;;4453078;32;20271;-50
2022/03/19 05:54:31;;;;;;;77.73;40.63;;;;;;;;;;4451499;32;20240;-52
2022/03/19 05:56:58;;;;;;;64.47;35.57;;;;;;;;;;4462180;32;20212;-52
2022/03/19 05:59:23;;;;;;;67.10;32.37;;;;;;;;;;4453958;32;20262;-51
2022/03/19 06:01:49;;;;;;;103.00;55.33;;;;;;;;;;4445821;32;20601;-51
2022/03/19 06:04:15;;;;;;;81.17;38.23;;;;;;;;;;4446671;32;20231;-51
2022/03/19 06:06:41;;;;;;;76.63;38.50;;;;;;;;;;4448994;32;20279;-52
2022/03/19 06:09:06;;;;;;;78.17;38.07;;;;;;;;;;4464421;32;20243;-51
2022/03/19 06:11:32;;;;;;;77.93;38.50;;;;;;;;;;4464349;32;20200;-50
2022/03/19 06:13:58;;;;;;;104.30;45.37;;;;;;;;;;4463941;32;20299;-51
2022/03/19 06:16:23;;;;;;;100.33;47.20;;;;;;;;;;4463863;32;20216;-51
2022/03/19 06:18:51;;;;;;;94.27;47.70;;;;;;;;;;4460323;32;20307;-52
2022/03/19 06:21:19;;;;;;;85.70;45.27;;;;;;;;;;4448973;32;20209;-51
2022/03/19 06:23:47;;;;;;;72.40;41.37;;;;;;;;;;4452563;32;20312;-51
2022/03/19 06:26:13;;;;;;;98.53;44.33;;;;;;;;;;4462530;32;20208;-51
2022/03/19 06:28:40;;;;;;;80.10;42.83;;;;;;;;;;4447921;32;20237;-51
2022/03/19 06:31:05;;;;;;;75.77;40.83;;;;;;;;;;4446179;32;20212;-50
2022/03/19 06:33:31;;;;;;;72.30;39.87;;;;;;;;;;4446666;32;20341;-49
2022/03/19 06:38:40;;;;;;;107.80;47.87;;;;;;;;;;4460591;32;20346;-50
2022/03/19 06:41:06;;;;;;;80.13;42.33;;;;;;;;;;4447641;32;20319;-50
2022/03/19 06:43:32;;;;;;;82.23;42.07;;;;;;;;;;4446004;32;20323;-50
2022/03/19 06:45:58;;;;;;;64.47;36.43;;;;;;;;;;4445749;32;20390;-51
2022/03/19 06:48:27;;;;;;;61.43;35.13;;;;;;;;;;4446434;32;20398;-51
2022/03/19 06:50:56;;;;;;;50.73;28.80;;;;;;;;;;4446413;32;20739;-51
2022/03/19 06:53:22;;;;;;;36.27;22.83;;;;;;;;;;4445935;32;20311;-51
2022/03/19 06:55:48;;;;;;;51.97;22.53;;;;;;;;;;4448257;32;20364;-52
2022/03/19 06:58:14;;;;;;;42.90;20.90;;;;;;;;;;4451049;32;20550;-51
2022/03/19 07:00:41;;;;;;;40.90;23.57;;;;;;;;;;4463313;32;20298;-52
2022/03/19 07:03:07;;;;;;;35.33;16.73;;;;;;;;;;4463925;32;20232;-51
2022/03/19 07:05:32;;;;;;;58.33;27.00;;;;;;;;;;4462407;32;20379;-53
2022/03/19 07:08:00;;;;;;;40.03;19.00;;;;;;;;;;4463657;32;20611;-51
2022/03/19 07:10:25;;;;;;;15.33;9.47;;;;;;;;;;4464220;32;20583;-52
2022/03/19 07:12:53;;;;;;;31.30;13.03;;;;;;;;;;4463612;32;20235;-51
2022/03/19 07:15:21;;;;;;;34.97;17.90;;;;;;;;;;4463769;32;20196;-50
2022/03/19 07:17:50;;;;;;;29.93;13.57;;;;;;;;;;4463584;32;20636;-50
2022/03/19 07:20:16;;;;;;;15.93;8.37;;;;;;;;;;4449748;32;20301;-52
2022/03/19 07:22:51;;;;;;;67.80;25.50;;;;;;;;;;4448014;32;20232;-50
2022/03/19 07:25:18;;;;;;;13.43;7.70;;;;;;;;;;4448099;32;20212;-51
2022/03/19 07:27:44;;;;;;;17.57;9.03;;;;;;;;;;4450953;32;20255;-51
2022/03/19 07:30:11;;;;;;;179.77;60.40;;;;;;;;;;4450550;32;20296;-52
2022/03/19 07:32:37;;;;;;;381.97;119.67;;;;;;;;;;4450364;32;20236;-51
2022/03/19 07:35:04;;;;;;;89.50;32.27;;;;;;;;;;4450706;32;20312;-52
2022/03/19 07:37:30;;;;;;;209.40;63.23;;;;;;;;;;4450161;32;20208;-51
2022/03/19 07:39:56;;;;;;;62.40;19.80;;;;;;;;;;4450811;32;20306;-52
2022/03/19 07:42:22;;;;;;;33.60;15.00;;;;;;;;;;4450396;32;20242;-51
2022/03/19 07:44:47;;;;;;;204.80;70.30;;;;;;;;;;4450290;32;20287;-51
2022/03/19 07:47:13;;;;;;;51.17;21.00;;;;;;;;;;4450336;32;20596;-52
2022/03/19 07:49:39;;;;;;;26.07;11.97;;;;;;;;;;4450512;32;20225;-51
2022/03/19 07:52:06;;;;;;;60.97;21.47;;;;;;;;;;4450298;32;20292;-49
2022/03/19 07:54:32;;;;;;;27.33;10.93;;;;;;;;;;4450662;32;20303;-50
2022/03/19 07:56:57;;;;;;;21.23;10.07;;;;;;;;;;4450412;32;20201;-51
2022/03/19 07:59:23;;;;;;;17.67;9.60;;;;;;;;;;4450222;32;20216;-51
2022/03/19 08:01:49;;;;;;;33.13;13.13;;;;;;;;;;4449819;32;20212;-51
2022/03/19 08:04:15;;;;;;;19.77;9.87;;;;;;;;;;4450460;32;20542;-50
2022/03/19 08:06:41;;;;;;;23.37;12.30;;;;;;;;;;4450487;32;20280;-50
2022/03/19 08:09:08;;;;;;;17.77;10.07;;;;;;;;;;4449098;32;20292;-51
2022/03/19 08:11:34;;;;;;;15.33;9.23;;;;;;;;;;4449644;32;20222;-51
2022/03/19 08:14:00;;;;;;;13.43;9.70;;;;;;;;;;4450161;32;20328;-51
2022/03/19 08:16:26;;;;;;;19.83;8.43;;;;;;;;;;4449380;32;20216;-51
2022/03/19 08:18:51;;;;;;;18.03;10.93;;;;;;;;;;4453492;32;20236;-51
2022/03/19 08:21:17;;;;;;;14.23;9.63;;;;;;;;;;4465440;32;20234;-51
2022/03/19 08:23:42;;;;;;;15.20;9.03;;;;;;;;;;4459618;32;20596;-51
2022/03/19 08:26:07;;;;;;;25.53;10.23;;;;;;;;;;4449804;32;20705;-51
2022/03/19 08:28:33;;;;;;;20.03;10.37;;;;;;;;;;4449520;32;20314;-53
2022/03/19 08:30:58;;;;;;;13.77;9.37;;;;;;;;;;4448906;32;20283;-50
2022/03/19 08:33:27;;;;;;;11.63;7.27;;;;;;;;;;4449307;32;20237;-51
2022/03/19 08:35:53;;;;;;;9.93;7.50;;;;;;;;;;4450252;32;20205;-51
2022/03/19 08:41:03;;;;;;;15.37;8.20;;;;;;;;;;4465062;32;20259;-51
2022/03/19 08:43:29;;;;;;;11.27;8.17;;;;;;;;;;4464069;32;20259;-51
2022/03/19 08:45:54;;;;;;;14.57;8.83;;;;;;;;;;4463871;32;20291;-52
2022/03/19 08:48:20;;;;;;;16.77;9.00;;;;;;;;;;4463765;32;20303;-52
2022/03/19 08:50:46;;;;;;;13.50;8.40;;;;;;;;;;4463572;32;20378;-52
2022/03/19 08:53:13;;;;;;;20.13;9.13;;;;;;;;;;4464889;32;20636;-52
2022/03/19 08:55:38;;;;;;;41.37;18.90;;;;;;;;;;4464549;32;20224;-51
2022/03/19 08:58:03;;;;;;;14.47;9.17;;;;;;;;;;4462707;32;20336;-51
2022/03/19 09:00:29;;;;;;;20.97;12.23;;;;;;;;;;4448975;32;20808;-52
2022/03/19 09:02:57;;;;;;;28.97;15.03;;;;;;;;;;4449006;32;20258;-51
2022/03/19 09:05:23;;;;;;;31.60;13.70;;;;;;;;;;4449115;32;20216;-51
2022/03/19 09:07:49;;;;;;;46.43;20.03;;;;;;;;;;4448964;32;20225;-52
2022/03/19 09:10:15;;;;;;;31.40;14.87;;;;;;;;;;4446078;32;20274;-51
2022/03/19 09:12:41;;;;;;;22.47;11.87;;;;;;;;;;4448841;32;20220;-51
2022/03/19 09:15:09;;;;;;;21.33;10.43;;;;;;;;;;4448399;32;20231;-51
2022/03/19 09:17:35;;;;;;;29.07;13.23;;;;;;;;;;4448464;32;20228;-51
2022/03/19 09:20:01;;;;;;;52.97;16.20;;;;;;;;;;4449218;32;20279;-52
2022/03/19 09:22:26;;;;;;;18.20;9.50;;;;;;;;;;4449154;32;20204;-51
2022/03/19 09:24:52;;;;;;;24.87;10.10;;;;;;;;;;4448681;32;20268;-51
2022/03/19 09:27:17;;;;;;;20.73;8.67;;;;;;;;;;4448149;32;20508;-51
2022/03/19 09:29:43;;;;;;;21.67;9.20;;;;;;;;;;4448409;32;20267;-51
2022/03/19 09:32:10;;;;;;;17.63;10.17;;;;;;;;;;4448537;32;20224;-52
2022/03/19 09:34:35;;;;;;;51.67;19.20;;;;;;;;;;4448166;32;20236;-51
2022/03/19 09:37:01;;;;;;;28.87;12.73;;;;;;;;;;4448090;32;20672;-52
2022/03/19 09:39:27;;;;;;;21.00;9.50;;;;;;;;;;4449019;32;20278;-51
2022/03/19 09:41:54;;;;;;;17.47;8.13;;;;;;;;;;4448556;32;20239;-51
2022/03/19 09:44:24;;;;;;;14.30;7.87;;;;;;;;;;4448460;32;20316;-51
2022/03/19 09:46:50;;;;;;;12.70;7.93;;;;;;;;;;4448282;32;20655;-51
2022/03/19 09:49:15;;;;;;;14.77;8.47;;;;;;;;;;4448062;32;20236;-50
2022/03/19 09:51:44;;;;;;;19.07;9.00;;;;;;;;;;4448580;32;20338;-50
2022/03/19 09:54:10;;;;;;;16.33;9.13;;;;;;;;;;4448659;32;20784;-52
2022/03/19 09:56:36;;;;;;;20.10;9.90;;;;;;;;;;4446994;32;20303;-52
2022/03/19 09:59:02;;;;;;;15.40;9.90;;;;;;;;;;4448437;32;20232;-51
2022/03/19 10:01:31;;;;;;;17.40;9.87;;;;;;;;;;4448137;32;20265;-51
2022/03/19 10:04:01;;;;;;;21.10;10.00;;;;;;;;;;4448556;32;20244;-51
2022/03/19 10:09:20;;;;;;;26.80;14.63;;;;;;;;;;4448604;32;20341;-51
2022/03/19 10:11:51;;;;;;;14.30;9.63;;;;;;;;;;4448523;32;20200;-51
2022/03/19 10:14:21;;;;;;;21.27;9.97;;;;;;;;;;4448602;32;20564;-51
2022/03/19 10:16:49;;;;;;;16.43;9.03;;;;;;;;;;4447989;32;20196;-51
2022/03/19 10:19:15;;;;;;;17.17;10.93;;;;;;;;;;4453916;32;20279;-51
2022/03/19 10:21:41;;;;;;;20.53;11.67;;;;;;;;;;4462603;32;20772;-51
2022/03/19 10:24:08;;;;;;;15.70;10.70;;;;;;;;;;4457428;32;20224;-51
2022/03/19 10:26:37;;;;;;;24.73;12.03;;;;;;;;;;4448206;32;20350;-51
2022/03/19 10:29:07;;;;;;;21.77;8.57;;;;;;;;;;4447031;32;20235;-51
2022/03/19 10:31:44;;;;;;;19.80;9.93;;;;;;;;;;4447599;32;20220;-52
2022/03/19 10:34:09;;;;;;;19.07;9.70;;;;;;;;;;4447141;32;20254;-51
2022/03/19 10:36:36;;;;;;;30.07;16.30;;;;;;;;;;4448209;32;20208;-51
2022/03/19 10:39:17;;;;;;;14.93;9.33;;;;;;;;;;4448347;32;20274;-52
2022/03/19 10:41:43;;;;;;;20.47;10.47;;;;;;;;;;4448198;32;20265;-51
2022/03/19 10:44:19;;;;;;;19.87;10.60;;;;;;;;;;4448110;32;20251;-51
2022/03/19 10:46:51;;;;;;;22.23;12.83;;;;;;;;;;4448277;32;20459;-52
2022/03/19 10:49:18;;;;;;;19.93;13.33;;;;;;;;;;4448027;32;20354;-51
2022/03/19 10:51:45;;;;;;;19.17;12.67;;;;;;;;;;4448324;32;20231;-53
2022/03/19 10:54:11;;;;;;;23.13;12.97;;;;;;;;;;4447197;32;20310;-53
2022/03/19 10:56:37;;;;;;;27.87;13.10;;;;;;;;;;4447638;32;20269;-51
2022/03/19 10:59:03;;;;;;;69.57;44.37;;;;;;;;;;4447864;32;20223;-51
2022/03/19 11:01:29;;;;;;;35.57;20.97;;;;;;;;;;4450408;32;20205;-51
2022/03/19 11:03:55;;;;;;;31.30;18.67;;;;;;;;;;4449901;32;20312;-53
2022/03/19 11:06:25;;;;;;;30.20;13.63;;;;;;;;;;4450613;32;20252;-51
2022/03/19 11:08:51;;;;;;;31.53;11.97;;;;;;;;;;4450839;32;20584;-51
2022/03/19 11:11:21;;;;;;;20.43;10.70;;;;;;;;;;4450310;32;20307;-52
2022/03/19 11:13:54;;;;;;;23.83;12.77;;;;;;;;;;4450474;32;20213;-52
2022/03/19 11:16:21;;;;;;;18.27;10.50;;;;;;;;;;4448994;32;20290;-51
2022/03/19 11:18:52;;;;;;;20.50;13.00;;;;;;;;;;4457037;32;20306;-51
2022/03/19 11:21:19;;;;;;;27.70;14.50;;;;;;;;;;4450136;32;20205;-52
2022/03/19 11:23:53;;;;;;;13.57;9.90;;;;;;;;;;4450522;32;20275;-51
2022/03/19 11:26:23;;;;;;;15.90;9.60;;;;;;;;;;4462432;32;20282;-52
2022/03/19 11:28:48;;;;;;;13.53;8.47;;;;;;;;;;4465289;32;20227;-51
2022/03/19 11:31:16;;;;;;;17.97;11.30;;;;;;;;;;4451400;32;20650;-52
2022/03/19 11:33:42;;;;;;;19.43;10.87;;;;;;;;;;4450210;32;20715;-52
2022/03/19 11:36:09;;;;;;;15.27;10.67;;;;;;;;;;4450234;32;20321;-51
2022/03/19 11:38:54;;;;;;;17.73;9.97;;;;;;;;;;4450450;32;20278;-51
2022/03/19 11:41:27;;;;;;;30.10;16.43;;;;;;;;;;4448626;32;20220;-52
2022/03/19 11:44:24;;;;;;;45.30;22.63;;;;;;;;;;4449176;32;20236;-52
2022/03/19 11:46:59;;;;;;;17.93;11.37;;;;;;;;;;4449029;32;20220;-52
2022/03/19 11:49:48;;;;;;;16.67;10.23;;;;;;;;;;4450061;32;20318;-52
2022/03/19 11:52:40;;;;;;;18.00;9.07;;;;;;;;;;4450038;32;20225;-53
2022/03/19 11:55:10;;;;;;;18.13;9.30;;;;;;;;;;4421940;32;20271;-52
2022/03/19 11:57:55;;;;;;;13.00;8.97;;;;;;;;;;4449863;32;20666;-52
2022/03/19 12:00:23;;;;;;;13.23;8.90;;;;;;;;;;4449904;32;20225;-52
2022/03/19 12:03:14;;;;;;;13.57;10.47;;;;;;;;;;4449974;32;20232;-52
2022/03/19 12:05:43;;;;;;;15.07;8.80;;;;;;;;;;4450409;32;20548;-51
2022/03/19 12:08:19;;;;;;;10.73;7.40;;;;;;;;;;4450223;32;20248;-51
2022/03/19 12:11:02;;;;;;;18.77;9.93;;;;;;;;;;4449773;32;20200;-51
2022/03/19 12:13:27;;;;;;;18.93;11.90;;;;;;;;;;4449794;32;20229;-51
2022/03/19 12:15:56;;;;;;;17.00;7.57;;;;;;;;;;4449604;32;20275;-51
2022/03/19 12:18:29;;;;;;;15.40;8.70;;;;;;;;;;4448446;32;20299;-51
2022/03/19 12:20:57;;;;;;;23.07;10.40;;;;;;;;;;4449557;32;20272;-51
2022/03/19 12:23:24;;;;;;;21.93;11.47;;;;;;;;;;4450091;32;20559;-51
2022/03/19 12:25:51;;;;;;;13.43;8.60;;;;;;;;;;4460012;32;20347;-51
2022/03/19 12:28:17;;;;;;;22.03;11.90;;;;;;;;;;4464930;32;20587;-51
2022/03/19 12:30:44;;;;;;;17.60;9.50;;;;;;;;;;4462785;32;20416;-51
2022/03/19 12:33:09;;;;;;;20.93;11.73;;;;;;;;;;4450160;32;20216;-51
2022/03/19 12:35:34;;;;;;;18.17;10.57;;;;;;;;;;4448514;32;20307;-52
2022/03/19 12:38:00;;;;;;;29.60;12.63;;;;;;;;;;4449530;32;20769;-52
2022/03/19 12:40:28;;;;;;;22.07;9.77;;;;;;;;;;4449374;32;20271;-51
2022/03/19 12:42:55;;;;;;;26.00;14.87;;;;;;;;;;4449346;32;20270;-51
2022/03/19 12:45:35;;;;;;;20.43;11.90;;;;;;;;;;4449125;32;20279;-52
2022/03/19 12:48:01;;;;;;;28.83;15.97;;;;;;;;;;4449462;32;20360;-51
2022/03/19 12:50:26;;;;;;;17.23;10.90;;;;;;;;;;4449361;32;20220;-51
2022/03/19 12:52:53;;;;;;;17.70;9.77;;;;;;;;;;4449198;32;20613;-52
2022/03/19 12:55:20;;;;;;;27.00;13.80;;;;;;;;;;4448973;32;20302;-50
2022/03/19 12:57:56;;;;;;;26.20;12.23;;;;;;;;;;4449027;32;20288;-51
2022/03/19 13:00:22;;;;;;;18.70;10.87;;;;;;;;;;4449054;32;20203;-51
2022/03/19 13:02:54;;;;;;;28.07;11.83;;;;;;;;;;4448900;32;20402;-51
2022/03/19 13:05:21;;;;;;;18.77;11.17;;;;;;;;;;4448968;32;20291;-51
2022/03/19 13:08:02;;;;;;;18.27;10.77;;;;;;;;;;4448570;32;20289;-51
2022/03/19 13:10:27;;;;;;;20.97;11.47;;;;;;;;;;4449146;32;20337;-52
2022/03/19 13:13:06;;;;;;;16.07;9.20;;;;;;;;;;4448863;32;20288;-52
2022/03/19 13:15:32;;;;;;;16.60;9.93;;;;;;;;;;4449028;32;20239;-51
2022/03/19 13:17:58;;;;;;;19.03;8.60;;;;;;;;;;4448674;32;20225;-53
2022/03/19 13:20:23;;;;;;;15.97;8.90;;;;;;;;;;4448567;32;20759;-52
2022/03/19 13:22:49;;;;;;;18.13;9.53;;;;;;;;;;4447189;32;20728;-51
2022/03/19 13:25:14;;;;;;;18.83;11.20;;;;;;;;;;4448522;32;20280;-51
2022/03/19 13:27:40;;;;;;;18.10;8.50;;;;;;;;;;4448502;32;20243;-51
2022/03/19 13:30:11;;;;;;;17.13;9.80;;;;;;;;;;4448327;32;20283;-53
2022/03/19 13:32:37;;;;;;;16.97;8.70;;;;;;;;;;4448494;32;20263;-52
2022/03/19 13:35:03;;;;;;;15.20;9.67;;;;;;;;;;4448566;32;20317;-53
2022/03/19 13:37:37;;;;;;;15.70;11.37;;;;;;;;;;4448774;32;20329;-51
2022/03/19 13:40:04;;;;;;;14.77;9.80;;;;;;;;;;4448800;32;20642;-51
2022/03/19 13:42:35;;;;;;;16.50;9.67;;;;;;;;;;4448391;32;20242;-52
2022/03/19 13:45:13;;;;;;;16.20;8.77;;;;;;;;;;4448163;32;20683;-52
2022/03/19 13:47:45;;;;;;;19.83;10.23;;;;;;;;;;4448521;32;20231;-52
2022/03/19 13:50:14;;;;;;;16.07;10.27;;;;;;;;;;4447751;32;20691;-52
2022/03/19 13:52:44;;;;;;;16.03;9.73;;;;;;;;;;4446405;32;20312;-50
2022/03/19 13:55:20;;;;;;;14.40;10.93;;;;;;;;;;4446055;32;20416;-51
2022/03/19 13:57:48;;;;;;;17.57;11.10;;;;;;;;;;4446548;32;20285;-52
2022/03/19 14:00:13;;;;;;;17.57;10.77;;;;;;;;;;4446521;32;20212;-52
2022/03/19 14:03:00;;;;;;;22.40;11.67;;;;;;;;;;4445949;32;20237;-51
2022/03/19 14:05:28;;;;;;;13.67;9.17;;;;;;;;;;4447855;32;20379;-52
2022/03/19 14:07:58;;;;;;;20.83;9.10;;;;;;;;;;4448157;32;20287;-52
2022/03/19 14:10:35;;;;;;;17.80;8.70;;;;;;;;;;4447866;32;20204;-51
2022/03/19 14:13:16;;;;;;;11.13;7.77;;;;;;;;;;4448246;32;20232;-51
2022/03/19 14:15:43;;;;;;;13.40;8.43;;;;;;;;;;4448370;32;20599;-51
2022/03/19 14:18:19;;;;;;;18.37;9.83;;;;;;;;;;4454930;32;20583;-52
2022/03/19 14:20:45;;;;;;;19.00;11.93;;;;;;;;;;4448612;32;20245;-50
2022/03/19 14:23:11;;;;;;;13.80;8.27;;;;;;;;;;4448066;32;20311;-52
2022/03/19 14:25:36;;;;;;;11.70;7.83;;;;;;;;;;4447561;32;20275;-52
2022/03/19 14:28:06;;;;;;;14.70;9.83;;;;;;;;;;4447764;32;20843;-51
2022/03/19 14:30:32;;;;;;;20.93;9.43;;;;;;;;;;4447993;32;20303;-51
2022/03/19 14:33:00;;;;;;;14.43;6.43;;;;;;;;;;4447949;32;20240;-51
2022/03/19 14:35:47;;;;;;;28.30;12.90;;;;;;;;;;4448460;32;20216;-52
2022/03/19 14:38:19;;;;;;;14.63;8.13;;;;;;;;;;4451194;32;20295;-55